Forside
METAR-TAF:

METAR-TAF

Lufthavne :

Flughafen Sylt

Vesterland, Tyskland

Breddekreds: 54-55N, længdekreds: 008-21E, højde: 16 m

Aktuelle vejr

Denne rapport blev lavet for 29 minutter siden, kl. 22:20 UTC
Vind 10 kt fra nord
Temperatur 5°C
Fugtighed 70%
Tryk 1011 hPa
Sigt 10 km eller mere

METAR: EDXW 192220Z AUTO 01010KT 9999 // NCD 05/M00 Q1011 NRMK ATIS M

Tid: 00:49 (22:49 UTC)

Vejrudsigter

Denne rapport blev lavet for 8 timer og 49 minutter siden, kl. 14:00 UTC
Foreløbig gælder fra 19 på 15 UTC til 19 på 21 UTC
Vind 20 kt fra nordøst
Sigt 10 km eller mere
Spredte skyer i en højde af 1500 ft
Midlertidig
fra 19 på 15 UTC til 19 på 17 UTC
Vind 20 kt fra nordøst med vindstød på up til 30 kt
ændring
fra 19 på 16 UTC til 19 på 18 UTC
Vind 14 kt fra nordnordøst

TAF: EDXW 191400Z 1915/1921 04020KT 9999 SCT015 TEMPO 1915/1917 04020G30KT BECMG 1916/1918 02014KT

Vejrobservationer og prognoser fra mere end 4000 lufthavne (METAR og TAF).

De gule og røde prikker repræsenterer de meteorologiske stationer.

Flyt musen over at se navnet på stationen.

Så klik over at se vejr observationer og prognoser.

At skifte det kort: Klik på de grønne knapper med et sort kors for at zoome ind; på den grønne knap med en bindestreg for at zoome ud; eller på de grønne pile for tilstødende kort.


METAR-TAF: